Queen Of Oak Bay — VG8234 — position and weather

sailwx.info

Track history (hours):
 
Tides and Currents Weather Stations Pressure Air Temp Water Temp Dewpoint Dewpoint Depression Visibility Wind Speed Wind Dir Waves Ship Positions

Queen Of Oak Bay

Last reported at 2018-May-28 06:48 UTC. Time now 2018-May-28 09:32 UTC.
Position N 49°23' W 123°18'.

Length 139 m; draft 5.6 m.

Type: Passenger vessel. MMSI: 316001257.

Date/timePositionNaut miles runAvg speedWind from/ knotsBaromVisibWave heightAir tempDewpointWater temp
2018-May-28 06:48N 49°23' W 123°18'618.4
2018-May-28 06:29N 49°19' W 123°25'2010.1
2018-May-28 04:32N 49°14' W 123°54'918.8
2018-May-28 04:04N 49°16' W 123°41'518.9
2018-May-28 03:47N 49°18' W 123°33'519.0
2018-May-28 03:30N 49°19' W 123°25'5 4.2
2018-May-28 02:21N 49°22' W 123°19'10 3.2
2018-May-27 23:21N 49°18' W 123°32'8 5.1
2018-May-27 21:44N 49°21' W 123°20'519.3
2018-May-27 21:28N 49°18' W 123°27'5 2.1
2018-May-27 18:55N 49°18' W 123°35'819.8
2018-May-27 18:29N 49°20' W 123°23'1 0.8
2018-May-27 17:10N 49°20' W 123°21'418.5
2018-May-27 16:56N 49°19' W 123°28'18 9.3
2018-May-27 15:01N 49°13' W 123°54'119.7
2018-May-27 14:59N 49°14' W 123°53'1019.3
2018-May-27 14:28N 49°17' W 123°38'918.7
2018-May-27 13:58N 49°19' W 123°24'3 0.3
2018-May-27 06:35N 49°20' W 123°21'218.0
2018-May-27 06:30N 49°19' W 123°23'1319.0
2018-May-27 05:48N 49°15' W 123°42'719.0
2018-May-27 05:27N 49°14' W 123°52'5 4.0
2018-May-27 04:13N 49°15' W 123°45'518.5
2018-May-27 03:55N 49°17' W 123°37'818.6
2018-May-27 03:30N 49°19' W 123°25'7 6.0
2018-May-27 02:22N 49°23' W 123°17'717.7
2018-May-27 02:00N 49°19' W 123°25'1718.7
2018-May-27 01:06N 49°14' W 123°50'14 6.9
2018-May-26 23:09N 49°19' W 123°30'318.8
2018-May-26 23:00N 49°19' W 123°26'6 4.7
2018-May-26 21:49N 49°22' W 123°19'618.0
2018-May-26 21:28N 49°18' W 123°26'5 1.9
2018-May-26 18:49N 49°18' W 123°34'618.6
2018-May-26 18:29N 49°19' W 123°25'6 5.1
2018-May-26 17:21N 49°23' W 123°18'18 6.6
2018-May-26 14:39N 49°16' W 123°43'818.7
2018-May-26 14:11N 49°18' W 123°31'418.8
2018-May-26 14:00N 49°19' W 123°26'6 0.9
2018-May-26 06:46N 49°23' W 123°18'517.4
2018-May-26 06:30N 49°19' W 123°23'2111.0
2018-May-26 04:36N 49°13' W 123°54'219.3
2018-May-26 04:30N 49°14' W 123°51'1019.3
2018-May-26 03:59N 49°17' W 123°36'1019.2
2018-May-26 03:28N 49°20' W 123°21'4 4.8
2018-May-26 02:35N 49°23' W 123°17'1 7.1
2018-May-26 02:28N 49°23' W 123°18'1015.2
2018-May-26 01:49N 49°17' W 123°31'3 1.4
2018-May-25 23:27N 49°18' W 123°36'919.7
2018-May-25 23:00N 49°19' W 123°23'5 4.1
2018-May-25 21:51N 49°23' W 123°18'718.5
2018-May-25 21:29N 49°19' W 123°26'12 5.1
2018-May-25 19:11N 49°16' W 123°43'620.0
2018-May-25 18:54N 49°18' W 123°35'819.9
2018-May-25 18:30N 49°19' W 123°24'6 5.4
2018-May-25 17:27N 49°23' W 123°17'815.6
2018-May-25 16:58N 49°18' W 123°26'2111.8
2018-May-25 15:11N 49°12' W 123°57'918.3
2018-May-25 14:42N 49°16' W 123°45'1018.1
2018-May-25 14:09N 49°18' W 123°30'318.3
2018-May-25 13:58N 49°19' W 123°25'6 0.8
2018-May-25 06:47N 49°22' W 123°18'518.1
2018-May-25 06:30N 49°19' W 123°24'2111.5
2018-May-25 04:43N 49°13' W 123°54'617.7
2018-May-25 04:23N 49°15' W 123°46'917.7
2018-May-25 03:52N 49°18' W 123°32'617.7
2018-May-25 03:30N 49°20' W 123°23'4 4.0
2018-May-25 02:35N 49°22' W 123°19'219.2
2018-May-25 02:30N 49°21' W 123°20'10 3.6
2018-May-24 23:40N 49°18' W 123°35'419.6
2018-May-24 23:27N 49°19' W 123°28'8 5.5
2018-May-24 22:03N 49°22' W 123°18'119.9
2018-May-24 22:00N 49°22' W 123°19'7 2.2
2018-May-24 18:45N 49°19' W 123°28'520.1
2018-May-24 18:30N 49°20' W 123°21'2 1.9
2018-May-24 17:17N 49°22' W 123°19'617.8
2018-May-24 16:57N 49°18' W 123°26'9 3.9
2018-May-24 14:31N 49°17' W 123°40'120.2
2018-May-24 14:28N 49°17' W 123°39'919.9
2018-May-24 14:00N 49°19' W 123°25'6 0.9
2018-May-24 06:49N 49°23' W 123°18'617.9
2018-May-24 06:30N 49°19' W 123°24'1018.1
2018-May-24 05:56N 49°15' W 123°39'11 8.2
2018-May-24 04:37N 49°13' W 123°55'718.0
2018-May-24 04:15N 49°16' W 123°45'418.2
2018-May-24 04:00N 49°17' W 123°39'918.3
2018-May-24 03:30N 49°19' W 123°25'6 5.9
2018-May-24 02:24N 49°23' W 123°17'818.0
2018-May-24 01:59N 49°18' W 123°26'2111.8
2018-May-24 00:12N 49°12' W 123°57'418.3
2018-May-23 23:58N 49°14' W 123°51'918.7
2018-May-23 23:30N 49°17' W 123°39'918.4
2018-May-23 23:00N 49°19' W 123°25'7 6.3
2018-May-23 21:56N 49°23' W 123°17'818.5
2018-May-23 21:29N 49°18' W 123°27'1019.1
2018-May-23 20:58N 49°15' W 123°41'4 2.0
2018-May-23 18:54N 49°18' W 123°36'819.5
2018-May-23 18:30N 49°19' W 123°24'5 4.4
2018-May-23 17:19N 49°22' W 123°18'618.2
2018-May-23 17:00N 49°19' W 123°25'12 5.1
2018-May-23 14:38N 49°16' W 123°43'318.4
2018-May-23 14:29N 49°17' W 123°39'918.4
2018-May-23 14:00N 49°19' W 123°26'7 0.9
2018-May-23 06:48N 49°23' W 123°18'517.4
2018-May-23 06:30N 49°19' W 123°23'1118.1
2018-May-23 05:54N 49°16' W 123°39'1210.5
2018-May-23 04:45N 49°12' W 123°57'719.0
2018-May-23 04:22N 49°15' W 123°47'919.7
2018-May-23 03:55N 49°18' W 123°34'819.8
2018-May-23 03:29N 49°20' W 123°21'4 4.7
2018-May-23 02:37N 49°23' W 123°17'219.4
2018-May-23 02:30N 49°21' W 123°20'919.2
2018-May-23 02:00N 49°17' W 123°32'7 3.7
2018-May-22 23:58N 49°16' W 123°44'919.7
2018-May-22 23:30N 49°18' W 123°30'9 6.1
2018-May-22 21:59N 49°23' W 123°18'17 6.0
2018-May-22 19:11N 49°16' W 123°42'419.3
2018-May-22 18:58N 49°18' W 123°36'1019.8
2018-May-22 18:29N 49°20' W 123°21'2 2.1
2018-May-22 17:20N 49°22' W 123°19'818.7
2018-May-22 16:53N 49°18' W 123°30'819.9
2018-May-22 16:29N 49°15' W 123°42'5 2.4
2018-May-22 14:20N 49°18' W 123°35'718.8
2018-May-22 14:00N 49°19' W 123°25'7 1.1
2018-May-22 07:33N 49°23' W 123°17'115.7
2018-May-22 07:29N 49°23' W 123°18'1018.7
2018-May-22 06:58N 49°17' W 123°30'1520.0
2018-May-22 06:14N 49°14' W 123°52'7 5.3
2018-May-22 04:51N 49°16' W 123°42'819.8
2018-May-22 04:28N 49°18' W 123°31'10 8.3
2018-May-22 03:14N 49°23' W 123°17'418.3
2018-May-22 03:00N 49°20' W 123°21'1018.8
2018-May-22 02:29N 49°16' W 123°35'1119.9
2018-May-22 01:56N 49°14' W 123°51'5 2.8
2018-May-22 00:17N 49°12' W 123°57'617.1
2018-May-21 23:55N 49°15' W 123°49'919.8
2018-May-21 23:28N 49°18' W 123°36'919.7
2018-May-21 23:00N 49°20' W 123°22'1 0.6
2018-May-21 21:40N 49°20' W 123°21'2512.2
2018-May-21 19:38N 49°12' W 123°57'217.1
2018-May-21 19:29N 49°13' W 123°54'20 7.7
2018-May-21 16:57N 49°19' W 123°25'2212.1
2018-May-21 15:07N 49°12' W 123°57'214.3
2018-May-21 14:58N 49°13' W 123°55'1719.9
2018-May-21 14:07N 49°18' W 123°30'7 0.9
2018-May-21 06:39N 49°21' W 123°20'717.7
2018-May-21 06:16N 49°18' W 123°30'518.1
2018-May-21 06:00N 49°16' W 123°37'12 8.7
2018-May-21 04:35N 49°13' W 123°55'718.4
2018-May-21 04:11N 49°16' W 123°45'1018.4
2018-May-21 03:39N 49°18' W 123°30'318.5
2018-May-21 03:29N 49°19' W 123°25'3 2.2
2018-May-21 02:09N 49°20' W 123°21'418.9
2018-May-21 01:57N 49°18' W 123°26'3 0.9
2018-May-20 23:13N 49°18' W 123°30'11 2.9
2018-May-20 19:17N 49°15' W 123°47'14 5.7
2018-May-20 16:55N 49°18' W 123°27'3 1.3
2018-May-20 14:13N 49°18' W 123°32'618.8
2018-May-20 13:54N 49°19' W 123°23'1 0.1
2018-May-20 06:31N 49°20' W 123°22'118.8
2018-May-20 06:29N 49°19' W 123°22'1019.5
2018-May-20 05:59N 49°16' W 123°37'3 1.7
2018-May-20 04:05N 49°16' W 123°41'518.4
2018-May-20 03:49N 49°18' W 123°34'4 2.1
2018-May-20 01:53N 49°17' W 123°28'2 0.6
2018-May-19 23:02N 49°19' W 123°27'319.1
2018-May-19 22:52N 49°20' W 123°22'1 1.3
2018-May-19 21:42N 49°20' W 123°20'518.3
2018-May-19 21:27N 49°18' W 123°26'6 2.4
2018-May-19 18:52N 49°17' W 123°36'719.5
2018-May-19 18:29N 49°19' W 123°25'3 2.6
2018-May-19 17:11N 49°21' W 123°20'518.3
2018-May-19 16:55N 49°18' W 123°27'3 1.1
2018-May-19 13:53N 49°20' W 123°22'2 0.2
2018-May-19 06:37N 49°21' W 123°20'318.0
2018-May-19 06:26N 49°19' W 123°24'3 0.7
2018-May-19 02:11N 49°20' W 123°20'2411.2
2018-May-19 00:04N 49°13' W 123°55'1020.2
2018-May-18 23:35N 49°16' W 123°41'420.4
2018-May-18 23:25N 49°18' W 123°36'10 6.0
2018-May-18 21:41N 49°20' W 123°21'7 2.2
2018-May-18 18:44N 49°18' W 123°30'619.8
2018-May-18 18:27N 49°19' W 123°22'1 1.1
2018-May-18 17:12N 49°20' W 123°20'5 1.5
2018-May-18 14:04N 49°19' W 123°27'218.9
2018-May-18 13:58N 49°19' W 123°24'  
Track history (hours):
 
Tides and Currents Weather Stations Pressure Air Temp Water Temp Dewpoint Dewpoint Depression Visibility Wind Speed Wind Dir Waves Ship Positions

Queen Of Oak Bay

Last reported at 2018-May-28 06:48 UTC. Time now 2018-May-28 09:32 UTC.
Position N 49°23' W 123°18'.

Length 139 m; draft 5.6 m.

Type: Passenger vessel. MMSI: 316001257.

Date/timePositionNaut miles runAvg speedWind from/ knotsBaromVisibWave heightAir tempDewpointWater temp
2018-May-28 06:48N 49°23' W 123°18'618.4
2018-May-28 06:29N 49°19' W 123°25'2010.1
2018-May-28 04:32N 49°14' W 123°54'918.8
2018-May-28 04:04N 49°16' W 123°41'518.9
2018-May-28 03:47N 49°18' W 123°33'519.0
2018-May-28 03:30N 49°19' W 123°25'5 4.2
2018-May-28 02:21N 49°22' W 123°19'10 3.2
2018-May-27 23:21N 49°18' W 123°32'8 5.1
2018-May-27 21:44N 49°21' W 123°20'519.3
2018-May-27 21:28N 49°18' W 123°27'5 2.1
2018-May-27 18:55N 49°18' W 123°35'819.8
2018-May-27 18:29N 49°20' W 123°23'1 0.8
2018-May-27 17:10N 49°20' W 123°21'418.5
2018-May-27 16:56N 49°19' W 123°28'18 9.3
2018-May-27 15:01N 49°13' W 123°54'119.7
2018-May-27 14:59N 49°14' W 123°53'1019.3
2018-May-27 14:28N 49°17' W 123°38'918.7
2018-May-27 13:58N 49°19' W 123°24'3 0.3
2018-May-27 06:35N 49°20' W 123°21'218.0
2018-May-27 06:30N 49°19' W 123°23'1319.0
2018-May-27 05:48N 49°15' W 123°42'719.0
2018-May-27 05:27N 49°14' W 123°52'5 4.0
2018-May-27 04:13N 49°15' W 123°45'518.5
2018-May-27 03:55N 49°17' W 123°37'818.6
2018-May-27 03:30N 49°19' W 123°25'7 6.0
2018-May-27 02:22N 49°23' W 123°17'717.7
2018-May-27 02:00N 49°19' W 123°25'1718.7
2018-May-27 01:06N 49°14' W 123°50'14 6.9
2018-May-26 23:09N 49°19' W 123°30'318.8
2018-May-26 23:00N 49°19' W 123°26'6 4.7
2018-May-26 21:49N 49°22' W 123°19'618.0
2018-May-26 21:28N 49°18' W 123°26'5 1.9
2018-May-26 18:49N 49°18' W 123°34'618.6
2018-May-26 18:29N 49°19' W 123°25'6 5.1
2018-May-26 17:21N 49°23' W 123°18'18 6.6
2018-May-26 14:39N 49°16' W 123°43'818.7
2018-May-26 14:11N 49°18' W 123°31'418.8
2018-May-26 14:00N 49°19' W 123°26'6 0.9
2018-May-26 06:46N 49°23' W 123°18'517.4
2018-May-26 06:30N 49°19' W 123°23'2111.0
2018-May-26 04:36N 49°13' W 123°54'219.3
2018-May-26 04:30N 49°14' W 123°51'1019.3
2018-May-26 03:59N 49°17' W 123°36'1019.2
2018-May-26 03:28N 49°20' W 123°21'4 4.8
2018-May-26 02:35N 49°23' W 123°17'1 7.1
2018-May-26 02:28N 49°23' W 123°18'1015.2
2018-May-26 01:49N 49°17' W 123°31'3 1.4
2018-May-25 23:27N 49°18' W 123°36'919.7
2018-May-25 23:00N 49°19' W 123°23'5 4.1
2018-May-25 21:51N 49°23' W 123°18'718.5
2018-May-25 21:29N 49°19' W 123°26'12 5.1
2018-May-25 19:11N 49°16' W 123°43'620.0
2018-May-25 18:54N 49°18' W 123°35'819.9
2018-May-25 18:30N 49°19' W 123°24'6 5.4
2018-May-25 17:27N 49°23' W 123°17'815.6
2018-May-25 16:58N 49°18' W 123°26'2111.8
2018-May-25 15:11N 49°12' W 123°57'918.3
2018-May-25 14:42N 49°16' W 123°45'1018.1
2018-May-25 14:09N 49°18' W 123°30'318.3
2018-May-25 13:58N 49°19' W 123°25'6 0.8
2018-May-25 06:47N 49°22' W 123°18'518.1
2018-May-25 06:30N 49°19' W 123°24'2111.5
2018-May-25 04:43N 49°13' W 123°54'617.7
2018-May-25 04:23N 49°15' W 123°46'917.7
2018-May-25 03:52N 49°18' W 123°32'617.7
2018-May-25 03:30N 49°20' W 123°23'4 4.0
2018-May-25 02:35N 49°22' W 123°19'219.2
2018-May-25 02:30N 49°21' W 123°20'10 3.6
2018-May-24 23:40N 49°18' W 123°35'419.6
2018-May-24 23:27N 49°19' W 123°28'8 5.5
2018-May-24 22:03N 49°22' W 123°18'119.9
2018-May-24 22:00N 49°22' W 123°19'7 2.2
2018-May-24 18:45N 49°19' W 123°28'520.1
2018-May-24 18:30N 49°20' W 123°21'2 1.9
2018-May-24 17:17N 49°22' W 123°19'617.8
2018-May-24 16:57N 49°18' W 123°26'9 3.9
2018-May-24 14:31N 49°17' W 123°40'120.2
2018-May-24 14:28N 49°17' W 123°39'919.9
2018-May-24 14:00N 49°19' W 123°25'6 0.9
2018-May-24 06:49N 49°23' W 123°18'617.9
2018-May-24 06:30N 49°19' W 123°24'1018.1
2018-May-24 05:56N 49°15' W 123°39'11 8.2
2018-May-24 04:37N 49°13' W 123°55'718.0
2018-May-24 04:15N 49°16' W 123°45'418.2
2018-May-24 04:00N 49°17' W 123°39'918.3
2018-May-24 03:30N 49°19' W 123°25'6 5.9
2018-May-24 02:24N 49°23' W 123°17'818.0
2018-May-24 01:59N 49°18' W 123°26'2111.8
2018-May-24 00:12N 49°12' W 123°57'418.3
2018-May-23 23:58N 49°14' W 123°51'918.7
2018-May-23 23:30N 49°17' W 123°39'918.4
2018-May-23 23:00N 49°19' W 123°25'7 6.3
2018-May-23 21:56N 49°23' W 123°17'818.5
2018-May-23 21:29N 49°18' W 123°27'1019.1
2018-May-23 20:58N 49°15' W 123°41'4 2.0
2018-May-23 18:54N 49°18' W 123°36'819.5
2018-May-23 18:30N 49°19' W 123°24'5 4.4
2018-May-23 17:19N 49°22' W 123°18'618.2
2018-May-23 17:00N 49°19' W 123°25'12 5.1
2018-May-23 14:38N 49°16' W 123°43'318.4
2018-May-23 14:29N 49°17' W 123°39'918.4
2018-May-23 14:00N 49°19' W 123°26'7 0.9
2018-May-23 06:48N 49°23' W 123°18'517.4
2018-May-23 06:30N 49°19' W 123°23'1118.1
2018-May-23 05:54N 49°16' W 123°39'1210.5
2018-May-23 04:45N 49°12' W 123°57'719.0
2018-May-23 04:22N 49°15' W 123°47'919.7
2018-May-23 03:55N 49°18' W 123°34'819.8
2018-May-23 03:29N 49°20' W 123°21'4 4.7
2018-May-23 02:37N 49°23' W 123°17'219.4
2018-May-23 02:30N 49°21' W 123°20'919.2
2018-May-23 02:00N 49°17' W 123°32'7 3.7
2018-May-22 23:58N 49°16' W 123°44'919.7
2018-May-22 23:30N 49°18' W 123°30'9 6.1
2018-May-22 21:59N 49°23' W 123°18'17 6.0
2018-May-22 19:11N 49°16' W 123°42'419.3
2018-May-22 18:58N 49°18' W 123°36'1019.8
2018-May-22 18:29N 49°20' W 123°21'2 2.1
2018-May-22 17:20N 49°22' W 123°19'818.7
2018-May-22 16:53N 49°18' W 123°30'819.9
2018-May-22 16:29N 49°15' W 123°42'5 2.4
2018-May-22 14:20N 49°18' W 123°35'718.8
2018-May-22 14:00N 49°19' W 123°25'7 1.1
2018-May-22 07:33N 49°23' W 123°17'115.7
2018-May-22 07:29N 49°23' W 123°18'1018.7
2018-May-22 06:58N 49°17' W 123°30'1520.0
2018-May-22 06:14N 49°14' W 123°52'7 5.3
2018-May-22 04:51N 49°16' W 123°42'819.8
2018-May-22 04:28N 49°18' W 123°31'10 8.3
2018-May-22 03:14N 49°23' W 123°17'418.3
2018-May-22 03:00N 49°20' W 123°21'1018.8
2018-May-22 02:29N 49°16' W 123°35'1119.9
2018-May-22 01:56N 49°14' W 123°51'5 2.8
2018-May-22 00:17N 49°12' W 123°57'617.1
2018-May-21 23:55N 49°15' W 123°49'919.8
2018-May-21 23:28N 49°18' W 123°36'919.7
2018-May-21 23:00N 49°20' W 123°22'1 0.6
2018-May-21 21:40N 49°20' W 123°21'2512.2
2018-May-21 19:38N 49°12' W 123°57'217.1
2018-May-21 19:29N 49°13' W 123°54'20 7.7
2018-May-21 16:57N 49°19' W 123°25'2212.1
2018-May-21 15:07N 49°12' W 123°57'214.3
2018-May-21 14:58N 49°13' W 123°55'1719.9
2018-May-21 14:07N 49°18' W 123°30'7 0.9
2018-May-21 06:39N 49°21' W 123°20'717.7
2018-May-21 06:16N 49°18' W 123°30'518.1
2018-May-21 06:00N 49°16' W 123°37'12 8.7
2018-May-21 04:35N 49°13' W 123°55'718.4
2018-May-21 04:11N 49°16' W 123°45'1018.4
2018-May-21 03:39N 49°18' W 123°30'318.5
2018-May-21 03:29N 49°19' W 123°25'3 2.2
2018-May-21 02:09N 49°20' W 123°21'418.9
2018-May-21 01:57N 49°18' W 123°26'3 0.9
2018-May-20 23:13N 49°18' W 123°30'11 2.9
2018-May-20 19:17N 49°15' W 123°47'14 5.7
2018-May-20 16:55N 49°18' W 123°27'3 1.3
2018-May-20 14:13N 49°18' W 123°32'618.8
2018-May-20 13:54N 49°19' W 123°23'1 0.1
2018-May-20 06:31N 49°20' W 123°22'118.8
2018-May-20 06:29N 49°19' W 123°22'1019.5
2018-May-20 05:59N 49°16' W 123°37'3 1.7
2018-May-20 04:05N 49°16' W 123°41'518.4
2018-May-20 03:49N 49°18' W 123°34'4 2.1
2018-May-20 01:53N 49°17' W 123°28'2 0.6
2018-May-19 23:02N 49°19' W 123°27'319.1
2018-May-19 22:52N 49°20' W 123°22'1 1.3
2018-May-19 21:42N 49°20' W 123°20'518.3
2018-May-19 21:27N 49°18' W 123°26'6 2.4
2018-May-19 18:52N 49°17' W 123°36'719.5
2018-May-19 18:29N 49°19' W 123°25'3 2.6
2018-May-19 17:11N 49°21' W 123°20'518.3
2018-May-19 16:55N 49°18' W 123°27'3 1.1
2018-May-19 13:53N 49°20' W 123°22'2 0.2
2018-May-19 06:37N 49°21' W 123°20'318.0
2018-May-19 06:26N 49°19' W 123°24'3 0.7
2018-May-19 02:11N 49°20' W 123°20'2411.2
2018-May-19 00:04N 49°13' W 123°55'1020.2
2018-May-18 23:35N 49°16' W 123°41'420.4
2018-May-18 23:25N 49°18' W 123°36'10 6.0
2018-May-18 21:41N 49°20' W 123°21'7 2.2
2018-May-18 18:44N 49°18' W 123°30'619.8
2018-May-18 18:27N 49°19' W 123°22'1 1.1
2018-May-18 17:12N 49°20' W 123°20'5 1.5
2018-May-18 14:04N 49°19' W 123°27'218.9
2018-May-18 13:58N 49°19' W 123°24'  

Dump ship's entire track history